CheckWX is a tool to help pilots better visualize weather data.  It is not intended as a substitute for an official pre-flight weather briefing.

06:59:28 UTC

KSWF TAF
Stewart International Airport
New York, New York, USA
KSWF 170610Z 1706/1812 VRB03KT 1SM BR BKN010 FM171400 02005KT P6SM SCT040 BKN150 FM171800 24005KT P6SM SCT040 BKN150 FM180000 VRB05KT P6SM VCSH BKN050 AMD NOT SKED

Jun-17@
06:00 UTC

Jun-17 @ 06:00 UTC

Jun-17@
14:00 UTC

Jun-17 @ 14:00 UTC

KSWF 170610Z 1706/1812 VRB03KT 1SM BR BKN010
Wind
  • Variable at 3 KTS
Conditions
Mist
Cloud Levels
  • Broken at 1,000' AGL

Jun-17@
14:00 UTC

Jun-17 @ 14:00 UTC

Jun-17@
18:00 UTC

Jun-17 @ 18:00 UTC

FM171400 02005KT P6SM SCT040 BKN150

From

From Standard forecast or significant change

Wind
  • 020° at 5 KTS
Cloud Levels
  • Scattered at 4,000' AGL
  • Broken at 15,000' AGL

Jun-17@
18:00 UTC

Jun-17 @ 18:00 UTC

Jun-18@
00:00 UTC

Jun-18 @ 00:00 UTC

FM171800 24005KT P6SM SCT040 BKN150

From

From Standard forecast or significant change

Wind
  • 240° at 5 KTS
Cloud Levels
  • Scattered at 4,000' AGL
  • Broken at 15,000' AGL

Jun-18@
00:00 UTC

Jun-18 @ 00:00 UTC

Jun-18@
12:00 UTC

Jun-18 @ 12:00 UTC

FM180000 VRB05KT P6SM VCSH BKN050 AMD NOT SKED

From

From Standard forecast or significant change

Wind
  • Variable at 5 KTS
Cloud Levels
  • Broken at 5,000' AGL